Time;durP1;ratioP1;P1;durP2;ratioP2;P2;SDS_P1;SDS_P2;PMS_P1;PMS_P2;Temp;Humidity;BMP_temperature;BMP_pressure;BME280_temperature;BME280_humidity;BME280_pressure;Samples;Min_cycle;Max_cycle;Signal;HPM_P1;HPM_P2
2021/11/07 00:00:00;;;;;;;1.60;1.50;;;;;;;;;;5036428;28;20191;-47
2021/11/07 00:05:06;;;;;;;1.60;1.50;;;;;;;;;;5033524;28;20199;-47
2021/11/07 00:10:40;;;;;;;1.50;1.30;;;;;;;;;;5035560;28;20187;-46
2021/11/07 00:13:22;;;;;;;2.63;1.40;;;;;;;;;;5032623;28;20191;-47
2021/11/07 00:15:48;;;;;;;3.58;1.52;;;;;;;;;;5036029;28;20242;-47
2021/11/07 00:18:19;;;;;;;1.42;1.33;;;;;;;;;;5036319;28;20587;-47
2021/11/07 00:20:51;;;;;;;1.58;1.45;;;;;;;;;;5027562;28;20189;-47
2021/11/07 00:26:08;;;;;;;1.60;1.50;;;;;;;;;;5036439;28;20195;-47
2021/11/07 00:28:39;;;;;;;2.40;1.50;;;;;;;;;;5034921;28;20195;-47
2021/11/07 00:36:22;;;;;;;1.65;1.48;;;;;;;;;;5036158;28;20723;-47
2021/11/07 00:41:29;;;;;;;1.42;1.33;;;;;;;;;;5036377;28;20180;-47
2021/11/07 00:46:33;;;;;;;1.38;1.27;;;;;;;;;;5031896;28;20214;-47
2021/11/07 00:49:04;;;;;;;2.80;1.45;;;;;;;;;;5035748;28;20175;-47
2021/11/07 00:51:35;;;;;;;2.63;1.80;;;;;;;;;;5035481;28;20188;-47
2021/11/07 00:56:58;;;;;;;1.50;1.40;;;;;;;;;;5033460;28;20219;-47
2021/11/07 01:02:01;;;;;;;1.42;1.33;;;;;;;;;;5035050;28;20494;-47
2021/11/07 01:04:29;;;;;;;1.48;1.38;;;;;;;;;;5035084;28;20187;-47
2021/11/07 01:06:55;;;;;;;1.65;1.30;;;;;;;;;;5035499;28;20479;-47
2021/11/07 01:09:21;;;;;;;1.40;1.30;;;;;;;;;;5035547;28;20210;-47
2021/11/07 01:11:47;;;;;;;1.45;1.35;;;;;;;;;;5035302;28;20227;-46
2021/11/07 01:14:14;;;;;;;1.10;1.10;;;;;;;;;;5034937;28;20184;-47
2021/11/07 01:16:41;;;;;;;1.40;1.30;;;;;;;;;;5035142;28;20235;-47
2021/11/07 01:19:07;;;;;;;1.20;1.20;;;;;;;;;;5035018;28;20206;-47
2021/11/07 01:21:37;;;;;;;1.50;1.40;;;;;;;;;;5034282;28;20184;-47
2021/11/07 01:24:07;;;;;;;1.83;1.52;;;;;;;;;;5034608;28;20222;-47
2021/11/07 01:26:40;;;;;;;1.45;1.30;;;;;;;;;;5034874;28;20175;-47
2021/11/07 01:31:36;;;;;;;1.75;1.25;;;;;;;;;;5035237;28;20188;-47
2021/11/07 01:34:04;;;;;;;1.33;1.23;;;;;;;;;;5033813;28;20172;-47
2021/11/07 01:36:48;;;;;;;1.30;1.20;;;;;;;;;;5034253;28;20195;-47
2021/11/07 01:39:18;;;;;;;1.50;1.40;;;;;;;;;;5029394;28;20547;-47
2021/11/07 01:42:00;;;;;;;1.58;1.48;;;;;;;;;;5035226;28;20164;-47
2021/11/07 01:44:35;;;;;;;1.40;1.30;;;;;;;;;;5034254;28;20184;-47
2021/11/07 01:47:01;;;;;;;1.50;1.40;;;;;;;;;;5034733;28;20191;-47
2021/11/07 01:49:34;;;;;;;1.50;1.40;;;;;;;;;;5034468;28;20180;-47
2021/11/07 01:52:03;;;;;;;2.35;1.38;;;;;;;;;;5034510;28;20199;-47
2021/11/07 01:54:47;;;;;;;1.23;1.20;;;;;;;;;;5033548;28;20180;-47
2021/11/07 01:57:18;;;;;;;1.40;1.30;;;;;;;;;;5024638;28;20172;-46
2021/11/07 01:59:47;;;;;;;1.38;1.27;;;;;;;;;;5034368;28;20601;-47
2021/11/07 02:02:14;;;;;;;1.48;1.38;;;;;;;;;;5034181;28;20200;-47
2021/11/07 02:04:44;;;;;;;1.30;1.20;;;;;;;;;;5033976;28;20179;-47
2021/11/07 02:07:10;;;;;;;1.40;1.30;;;;;;;;;;5034063;28;20176;-47
2021/11/07 02:09:36;;;;;;;1.02;1.02;;;;;;;;;;5034321;28;20187;-47
2021/11/07 02:12:03;;;;;;;1.20;1.17;;;;;;;;;;5034357;28;20182;-47
2021/11/07 02:14:29;;;;;;;1.63;1.52;;;;;;;;;;5033450;28;20199;-47
2021/11/07 02:16:55;;;;;;;1.52;1.42;;;;;;;;;;5034641;28;20480;-47
2021/11/07 02:19:21;;;;;;;1.40;1.30;;;;;;;;;;5034372;28;20183;-47
2021/11/07 02:21:48;;;;;;;1.33;1.23;;;;;;;;;;5034347;28;20183;-47
2021/11/07 02:24:16;;;;;;;1.48;1.38;;;;;;;;;;5033426;28;20239;-47
2021/11/07 02:26:54;;;;;;;1.33;1.25;;;;;;;;;;5014950;28;20176;-46
2021/11/07 02:29:24;;;;;;;1.40;1.30;;;;;;;;;;5015113;28;20173;-47
2021/11/07 02:31:50;;;;;;;1.10;1.10;;;;;;;;;;5016101;28;20168;-47
2021/11/07 02:34:17;;;;;;;1.20;1.20;;;;;;;;;;5032104;28;20198;-47
2021/11/07 02:36:43;;;;;;;1.60;1.50;;;;;;;;;;5034281;28;20204;-47
2021/11/07 02:39:13;;;;;;;1.50;1.40;;;;;;;;;;5033750;28;20179;-47
2021/11/07 02:41:39;;;;;;;1.20;1.10;;;;;;;;;;5034441;28;20234;-47
2021/11/07 02:44:05;;;;;;;1.30;1.20;;;;;;;;;;5033986;28;20176;-47
2021/11/07 02:46:31;;;;;;;1.23;1.13;;;;;;;;;;5034143;28;20199;-47
2021/11/07 02:48:58;;;;;;;1.25;1.15;;;;;;;;;;5035486;28;20187;-47
2021/11/07 02:51:26;;;;;;;1.30;1.20;;;;;;;;;;5034289;28;20254;-47
2021/11/07 02:53:52;;;;;;;0.80;0.80;;;;;;;;;;5039011;28;20184;-47
2021/11/07 02:56:19;;;;;;;1.20;1.10;;;;;;;;;;5032416;28;20605;-47
2021/11/07 02:58:46;;;;;;;1.20;1.20;;;;;;;;;;5033964;28;20266;-47
2021/11/07 03:01:13;;;;;;;1.42;1.33;;;;;;;;;;5033664;28;20274;-47
2021/11/07 03:03:39;;;;;;;1.58;1.33;;;;;;;;;;5033419;28;20191;-47
2021/11/07 03:06:05;;;;;;;1.38;1.27;;;;;;;;;;5033575;28;20187;-47
2021/11/07 03:08:31;;;;;;;1.23;1.13;;;;;;;;;;5033842;28;20172;-47
2021/11/07 03:10:59;;;;;;;1.05;1.02;;;;;;;;;;5027874;28;20185;-47
2021/11/07 03:13:25;;;;;;;1.10;1.10;;;;;;;;;;5023308;28;20207;-47
2021/11/07 03:15:51;;;;;;;1.10;1.10;;;;;;;;;;5033689;28;20218;-47
2021/11/07 03:18:18;;;;;;;1.40;1.30;;;;;;;;;;5033967;28;20188;-47
2021/11/07 03:20:44;;;;;;;1.40;1.30;;;;;;;;;;5033971;28;20251;-47
2021/11/07 03:23:11;;;;;;;1.17;1.13;;;;;;;;;;5033421;28;20190;-47
2021/11/07 03:25:51;;;;;;;1.20;1.10;;;;;;;;;;5025299;28;20184;-47
2021/11/07 03:28:18;;;;;;;1.20;1.10;;;;;;;;;;5036901;28;20618;-47
2021/11/07 03:33:21;;;;;;;1.10;1.05;;;;;;;;;;5037025;28;20195;-47
2021/11/07 03:35:48;;;;;;;1.10;1.10;;;;;;;;;;5037037;28;20191;-47
2021/11/07 03:38:15;;;;;;;1.50;1.40;;;;;;;;;;5037104;28;20274;-47
2021/11/07 03:40:41;;;;;;;1.42;1.33;;;;;;;;;;5036804;28;20435;-47
2021/11/07 03:43:07;;;;;;;1.33;1.23;;;;;;;;;;5036549;28;20175;-47
2021/11/07 03:45:33;;;;;;;0.90;0.90;;;;;;;;;;5036893;28;20175;-47
2021/11/07 03:48:01;;;;;;;1.30;1.20;;;;;;;;;;5032482;28;20459;-47
2021/11/07 03:50:27;;;;;;;2.13;1.30;;;;;;;;;;5036599;28;20276;-47
2021/11/07 03:52:53;;;;;;;1.27;1.17;;;;;;;;;;5036074;28;20204;-47
2021/11/07 03:55:19;;;;;;;1.38;1.27;;;;;;;;;;5036733;28;20246;-47
2021/11/07 03:57:45;;;;;;;1.20;1.20;;;;;;;;;;5036663;28;20489;-47
2021/11/07 04:00:12;;;;;;;1.10;1.10;;;;;;;;;;5036498;28;20180;-48
2021/11/07 04:02:39;;;;;;;1.10;1.00;;;;;;;;;;5036303;28;20246;-47
2021/11/07 04:05:07;;;;;;;1.00;1.00;;;;;;;;;;5036529;28;20175;-47
2021/11/07 04:07:33;;;;;;;1.40;1.30;;;;;;;;;;5029239;28;20176;-47
2021/11/07 04:09:59;;;;;;;1.17;1.17;;;;;;;;;;5019166;28;20180;-47
2021/11/07 04:12:25;;;;;;;1.27;1.17;;;;;;;;;;5036791;28;20442;-47
2021/11/07 04:14:51;;;;;;;1.45;1.35;;;;;;;;;;5036041;28;20179;-47
2021/11/07 04:17:17;;;;;;;1.20;1.10;;;;;;;;;;5036417;28;20708;-47
2021/11/07 04:19:43;;;;;;;1.13;1.13;;;;;;;;;;5036619;28;20551;-47
2021/11/07 04:22:12;;;;;;;1.33;1.23;;;;;;;;;;5030293;28;20176;-47
2021/11/07 04:24:38;;;;;;;1.60;1.20;;;;;;;;;;5035856;28;20206;-47
2021/11/07 04:27:04;;;;;;;1.50;1.40;;;;;;;;;;5035917;28;20453;-47
2021/11/07 04:29:30;;;;;;;1.85;1.05;;;;;;;;;;5036563;28;20175;-47
2021/11/07 04:31:56;;;;;;;1.25;1.15;;;;;;;;;;5035719;28;20205;-47
2021/11/07 04:34:23;;;;;;;1.33;1.10;;;;;;;;;;5036021;28;20469;-47
2021/11/07 04:36:50;;;;;;;1.13;1.13;;;;;;;;;;5035049;28;20196;-47
2021/11/07 04:39:16;;;;;;;1.40;1.30;;;;;;;;;;5036063;28;20248;-47
2021/11/07 04:41:42;;;;;;;1.10;1.10;;;;;;;;;;5035931;28;20350;-47
2021/11/07 04:44:08;;;;;;;1.20;1.08;;;;;;;;;;5035440;28;20570;-47
2021/11/07 04:46:35;;;;;;;1.58;1.33;;;;;;;;;;5035382;28;20191;-47
2021/11/07 04:49:02;;;;;;;1.73;1.10;;;;;;;;;;5035417;28;20590;-47
2021/11/07 04:51:28;;;;;;;1.25;1.10;;;;;;;;;;5031279;28;20188;-47
2021/11/07 04:53:54;;;;;;;1.08;0.98;;;;;;;;;;5035246;28;20179;-47
2021/11/07 04:56:20;;;;;;;1.25;1.15;;;;;;;;;;5035540;28;20207;-46
2021/11/07 04:58:46;;;;;;;2.30;1.10;;;;;;;;;;5035602;28;20575;-47
2021/11/07 05:01:12;;;;;;;2.25;1.23;;;;;;;;;;5035007;28;20210;-47
2021/11/07 05:03:39;;;;;;;1.10;1.00;;;;;;;;;;5034323;28;20198;-47
2021/11/07 05:06:05;;;;;;;1.23;1.13;;;;;;;;;;5035512;28;20179;-46
2021/11/07 05:08:32;;;;;;;1.50;1.08;;;;;;;;;;5034649;28;20192;-47
2021/11/07 05:10:59;;;;;;;0.95;0.95;;;;;;;;;;5035393;28;20168;-47
2021/11/07 05:13:25;;;;;;;3.35;1.02;;;;;;;;;;5035248;28;20500;-47
2021/11/07 05:15:51;;;;;;;1.10;1.00;;;;;;;;;;5035101;28;20210;-47
2021/11/07 05:18:18;;;;;;;1.23;1.13;;;;;;;;;;5027489;28;20194;-47
2021/11/07 05:20:45;;;;;;;1.00;1.00;;;;;;;;;;5035302;28;20258;-47
2021/11/07 05:23:11;;;;;;;1.40;1.17;;;;;;;;;;5035034;28;20168;-47
2021/11/07 05:25:37;;;;;;;1.00;1.00;;;;;;;;;;5035188;28;20186;-47
2021/11/07 05:28:03;;;;;;;1.30;1.20;;;;;;;;;;5034381;28;20483;-47
2021/11/07 05:30:29;;;;;;;1.20;1.10;;;;;;;;;;5034962;28;20184;-47
2021/11/07 05:32:56;;;;;;;1.33;1.10;;;;;;;;;;5028165;28;20194;-46
2021/11/07 05:35:22;;;;;;;1.17;1.08;;;;;;;;;;5035114;28;20248;-47
2021/11/07 05:37:49;;;;;;;1.42;0.95;;;;;;;;;;5035097;28;20495;-47
2021/11/07 05:40:17;;;;;;;1.40;1.30;;;;;;;;;;5034721;28;20298;-47
2021/11/07 05:42:43;;;;;;;0.90;0.90;;;;;;;;;;5034602;28;20579;-47
2021/11/07 05:45:09;;;;;;;1.40;1.27;;;;;;;;;;5034523;28;20168;-47
2021/11/07 05:47:36;;;;;;;1.20;1.20;;;;;;;;;;5033614;28;20199;-47
2021/11/07 05:50:02;;;;;;;1.08;1.00;;;;;;;;;;5034052;28;20182;-47
2021/11/07 05:52:29;;;;;;;1.00;1.00;;;;;;;;;;5034946;28;20179;-47
2021/11/07 05:54:55;;;;;;;1.27;1.13;;;;;;;;;;5034184;28;20179;-47
2021/11/07 05:57:21;;;;;;;1.98;1.20;;;;;;;;;;5034328;28;20175;-47
2021/11/07 05:59:47;;;;;;;1.23;1.13;;;;;;;;;;5032561;28;20186;-47
2021/11/07 06:02:13;;;;;;;1.10;1.10;;;;;;;;;;5032158;28;20725;-47
2021/11/07 06:04:40;;;;;;;1.00;1.00;;;;;;;;;;5027371;28;20179;-47
2021/11/07 06:07:06;;;;;;;1.05;0.93;;;;;;;;;;5033748;28;20179;-47
2021/11/07 06:09:32;;;;;;;1.25;1.10;;;;;;;;;;5034085;28;20168;-47
2021/11/07 06:11:58;;;;;;;1.10;1.10;;;;;;;;;;5027603;28;20203;-47
2021/11/07 06:14:24;;;;;;;1.35;1.00;;;;;;;;;;5033546;28;20175;-47
2021/11/07 06:16:50;;;;;;;1.30;1.20;;;;;;;;;;5034129;28;20234;-46
2021/11/07 06:19:16;;;;;;;1.38;1.23;;;;;;;;;;5034588;28;20196;-46
2021/11/07 06:21:42;;;;;;;2.65;1.27;;;;;;;;;;5034136;28;20203;-46
2021/11/07 06:24:12;;;;;;;1.38;1.23;;;;;;;;;;5034051;28;20475;-46
2021/11/07 06:26:38;;;;;;;5.50;1.75;;;;;;;;;;5034176;28;20167;-47
2021/11/07 06:29:04;;;;;;;5.50;1.73;;;;;;;;;;5033885;28;20470;-47
2021/11/07 06:31:30;;;;;;;3.53;1.70;;;;;;;;;;5034263;28;20172;-47
2021/11/07 06:33:56;;;;;;;5.03;1.80;;;;;;;;;;5033904;28;20477;-47
2021/11/07 06:36:22;;;;;;;4.07;1.83;;;;;;;;;;5034273;28;20218;-47
2021/11/07 06:38:49;;;;;;;2.47;1.80;;;;;;;;;;5033897;28;20230;-47
2021/11/07 06:41:15;;;;;;;6.93;2.05;;;;;;;;;;5033467;28;20184;-47
2021/11/07 06:43:41;;;;;;;6.70;2.28;;;;;;;;;;5019652;28;20182;-47
2021/11/07 06:46:07;;;;;;;5.35;2.40;;;;;;;;;;5033182;28;20242;-47
2021/11/07 06:48:34;;;;;;;5.30;2.40;;;;;;;;;;5033797;28;20191;-47
2021/11/07 06:51:01;;;;;;;5.20;2.10;;;;;;;;;;5034000;28;20234;-47
2021/11/07 06:53:28;;;;;;;4.28;1.85;;;;;;;;;;5033844;28;20226;-46
2021/11/07 06:55:54;;;;;;;4.28;1.65;;;;;;;;;;5034129;28;20287;-47
2021/11/07 06:58:20;;;;;;;6.18;2.00;;;;;;;;;;5034555;28;20730;-47
2021/11/07 07:00:46;;;;;;;4.97;1.90;;;;;;;;;;5035504;28;20233;-47
2021/11/07 07:03:12;;;;;;;3.55;2.13;;;;;;;;;;5037919;28;20198;-47
2021/11/07 07:05:38;;;;;;;4.45;1.77;;;;;;;;;;5037607;28;20482;-47
2021/11/07 07:08:11;;;;;;;6.68;2.00;;;;;;;;;;5037404;28;20191;-47
2021/11/07 07:10:48;;;;;;;6.95;2.20;;;;;;;;;;5037889;28;20302;-43
2021/11/07 07:13:35;;;;;;;6.55;2.33;;;;;;;;;;5036830;28;20266;-49
2021/11/07 07:16:20;;;;;;;4.93;2.40;;;;;;;;;;5037543;28;20202;-46
2021/11/07 07:19:00;;;;;;;7.82;2.10;;;;;;;;;;5033405;28;20168;-46
2021/11/07 07:34:23;;;;;;;7.10;1.80;;;;;;;;;;5048976;28;20194;-47
2021/11/07 07:36:50;;;;;;;5.78;1.65;;;;;;;;;;5036777;28;20249;-45
2021/11/07 07:39:16;;;;;;;6.53;1.83;;;;;;;;;;5045071;28;20198;-48
2021/11/07 07:41:43;;;;;;;4.40;1.75;;;;;;;;;;5057114;28;20671;-43
2021/11/07 07:44:09;;;;;;;3.85;1.52;;;;;;;;;;5056936;28;20199;-44
2021/11/07 07:46:36;;;;;;;2.78;1.45;;;;;;;;;;5038847;28;20314;-44
2021/11/07 07:49:03;;;;;;;5.47;1.40;;;;;;;;;;5036676;28;20270;-43
2021/11/07 07:51:30;;;;;;;2.05;1.42;;;;;;;;;;5037118;28;20194;-46
2021/11/07 07:54:00;;;;;;;2.55;1.63;;;;;;;;;;5036018;28;20183;-54
2021/11/07 07:56:26;;;;;;;3.00;1.55;;;;;;;;;;5036620;28;20203;-59
2021/11/07 07:58:52;;;;;;;3.45;1.52;;;;;;;;;;5036487;28;20186;-49
2021/11/07 08:01:18;;;;;;;3.13;1.67;;;;;;;;;;5036564;28;20226;-47
2021/11/07 08:03:44;;;;;;;7.25;1.67;;;;;;;;;;5036304;28;20188;-50
2021/11/07 08:06:10;;;;;;;2.30;1.50;;;;;;;;;;5036236;28;20203;-50
2021/11/07 08:08:36;;;;;;;3.70;1.40;;;;;;;;;;5047825;28;20202;-48
2021/11/07 08:11:04;;;;;;;3.22;1.60;;;;;;;;;;5045441;28;20559;-53
2021/11/07 08:13:30;;;;;;;4.25;1.20;;;;;;;;;;5053542;28;20266;-49
2021/11/07 08:15:56;;;;;;;3.50;1.60;;;;;;;;;;5056491;28;20274;-49
2021/11/07 08:18:23;;;;;;;3.70;1.60;;;;;;;;;;5044674;28;20163;-49
2021/11/07 08:20:49;;;;;;;2.72;1.40;;;;;;;;;;5036771;28;20164;-48
2021/11/07 08:23:15;;;;;;;4.40;1.60;;;;;;;;;;5035779;28;20593;-50
2021/11/07 08:25:42;;;;;;;2.00;1.33;;;;;;;;;;5035800;28;20213;-49
2021/11/07 08:28:08;;;;;;;3.20;1.65;;;;;;;;;;5033716;28;20183;-46
2021/11/07 08:30:38;;;;;;;1.50;1.27;;;;;;;;;;5035621;28;20492;-57
2021/11/07 08:33:05;;;;;;;3.45;1.55;;;;;;;;;;5035708;28;20172;-48
2021/11/07 08:35:33;;;;;;;1.85;1.50;;;;;;;;;;5036074;28;20237;-50
2021/11/07 08:38:07;;;;;;;3.88;1.60;;;;;;;;;;5035882;28;20171;-48
2021/11/07 08:40:39;;;;;;;2.60;1.33;;;;;;;;;;5036109;28;20172;-49
2021/11/07 09:05:01;;;;;;;4.60;1.60;;;;;;;;;;5034986;28;20226;-49
2021/11/07 09:10:00;;;;;;;2.55;1.80;;;;;;;;;;5034165;28;20478;-49
2021/11/07 09:12:27;;;;;;;144.23;39.90;;;;;;;;;;5043334;28;20458;-49
2021/11/07 09:14:54;;;;;;;179.57;51.30;;;;;;;;;;5055035;28;20168;-49
2021/11/07 09:17:21;;;;;;;174.23;46.28;;;;;;;;;;5052782;28;20167;-50
2021/11/07 09:19:49;;;;;;;143.50;42.95;;;;;;;;;;5035231;28;20191;-49
2021/11/07 09:22:22;;;;;;;124.57;37.72;;;;;;;;;;5035210;28;20167;-49
2021/11/07 09:24:55;;;;;;;126.95;35.10;;;;;;;;;;5029210;28;20582;-50
2021/11/07 09:27:27;;;;;;;100.00;30.40;;;;;;;;;;5034319;28;20479;-50
2021/11/07 09:30:03;;;;;;;97.53;31.05;;;;;;;;;;5034992;28;20171;-49
2021/11/07 09:37:47;;;;;;;90.50;26.75;;;;;;;;;;5034484;28;20591;-49
2021/11/07 09:40:16;;;;;;;77.47;24.33;;;;;;;;;;5032118;28;20180;-49
2021/11/07 09:45:25;;;;;;;56.38;20.98;;;;;;;;;;5034830;28;20215;-48
2021/11/07 09:47:59;;;;;;;52.88;18.95;;;;;;;;;;5033475;28;20290;-49
2021/11/07 09:50:25;;;;;;;55.90;19.70;;;;;;;;;;5034837;28;20175;-49
2021/11/07 09:52:53;;;;;;;46.70;17.77;;;;;;;;;;5023725;28;20188;-49
2021/11/07 09:55:22;;;;;;;41.45;15.32;;;;;;;;;;5032416;28;20199;-49
2021/11/07 09:57:51;;;;;;;46.60;16.30;;;;;;;;;;5034106;28;20187;-49
2021/11/07 10:00:20;;;;;;;37.92;14.23;;;;;;;;;;5034152;28;20234;-49
2021/11/07 10:02:46;;;;;;;39.67;15.10;;;;;;;;;;5034485;28;20175;-49
2021/11/07 10:05:14;;;;;;;34.80;13.90;;;;;;;;;;5034029;28;20176;-50
2021/11/07 10:07:42;;;;;;;30.58;12.30;;;;;;;;;;5022602;28;20179;-49
2021/11/07 10:10:15;;;;;;;28.90;12.88;;;;;;;;;;5033419;28;20187;-49
2021/11/07 10:12:45;;;;;;;26.70;11.05;;;;;;;;;;5034612;28;20178;-50
2021/11/07 10:15:18;;;;;;;31.90;12.98;;;;;;;;;;5034351;28;20481;-49
2021/11/07 10:17:48;;;;;;;38.25;14.25;;;;;;;;;;5033757;28;20195;-49
2021/11/07 10:22:43;;;;;;;34.67;13.02;;;;;;;;;;5034136;28;20188;-49
2021/11/07 10:25:17;;;;;;;40.30;13.77;;;;;;;;;;5033483;28;20203;-49
2021/11/07 10:27:48;;;;;;;31.73;11.93;;;;;;;;;;5024532;28;20179;-49
2021/11/07 10:30:26;;;;;;;37.95;13.93;;;;;;;;;;5034325;28;20634;-49
2021/11/07 10:33:07;;;;;;;31.92;13.73;;;;;;;;;;5033805;28;20856;-49
2021/11/07 10:35:53;;;;;;;43.03;14.07;;;;;;;;;;5034063;28;20590;-50
2021/11/07 10:41:26;;;;;;;41.20;13.80;;;;;;;;;;5038535;28;20187;-50
2021/11/07 10:44:19;;;;;;;30.17;12.38;;;;;;;;;;5037777;28;20266;-49
2021/11/07 10:47:00;;;;;;;33.90;13.75;;;;;;;;;;5037696;28;20191;-51
2021/11/07 10:52:20;;;;;;;37.17;14.10;;;;;;;;;;5038334;28;20651;-49
2021/11/07 10:54:46;;;;;;;34.60;14.10;;;;;;;;;;5037770;28;20225;-49
2021/11/07 10:57:14;;;;;;;42.72;15.05;;;;;;;;;;5037940;28;20291;-49
2021/11/07 10:59:41;;;;;;;41.33;15.63;;;;;;;;;;5037596;28;20172;-49
2021/11/07 11:02:25;;;;;;;44.47;17.17;;;;;;;;;;5036171;28;20194;-49
2021/11/07 11:04:58;;;;;;;52.38;18.88;;;;;;;;;;5020588;28;20186;-49
2021/11/07 11:07:24;;;;;;;47.83;18.63;;;;;;;;;;5037390;28;20187;-49
2021/11/07 11:10:11;;;;;;;55.97;20.45;;;;;;;;;;5037066;28;20176;-49
2021/11/07 11:12:57;;;;;;;58.45;20.77;;;;;;;;;;5020094;28;20252;-50
2021/11/07 11:15:32;;;;;;;58.28;21.83;;;;;;;;;;5037499;28;20318;-49
2021/11/07 11:18:19;;;;;;;68.63;24.63;;;;;;;;;;5021738;28;20265;-49
2021/11/07 11:29:26;;;;;;;56.63;22.08;;;;;;;;;;5036237;28;20184;-49
2021/11/07 11:32:01;;;;;;;60.95;25.10;;;;;;;;;;5036476;28;20179;-49
2021/11/07 11:34:34;;;;;;;59.00;22.13;;;;;;;;;;5036689;28;20179;-49
2021/11/07 11:37:12;;;;;;;61.17;22.33;;;;;;;;;;5037063;28;20295;-49
2021/11/07 11:39:44;;;;;;;51.60;20.58;;;;;;;;;;5034431;28;20211;-49
2021/11/07 11:44:37;;;;;;;53.97;21.15;;;;;;;;;;5032538;28;20268;-48
2021/11/07 11:47:33;;;;;;;51.58;20.52;;;;;;;;;;5033722;28;20206;-49
2021/11/07 11:50:16;;;;;;;49.03;20.30;;;;;;;;;;5036531;28;20457;-48
2021/11/07 11:52:54;;;;;;;59.47;20.98;;;;;;;;;;5036875;28;20179;-49
2021/11/07 12:03:24;;;;;;;50.70;20.08;;;;;;;;;;5036229;28;20490;-48
2021/11/07 12:05:55;;;;;;;49.63;18.92;;;;;;;;;;5036470;28;20187;-49
2021/11/07 12:11:27;;;;;;;51.13;18.60;;;;;;;;;;5036685;28;20229;-49
2021/11/07 12:14:05;;;;;;;43.55;18.58;;;;;;;;;;5034580;28;20226;-49
2021/11/07 12:16:56;;;;;;;45.47;18.05;;;;;;;;;;5036634;28;20200;-49
2021/11/07 12:19:29;;;;;;;40.97;17.40;;;;;;;;;;5041533;28;20191;-49
2021/11/07 12:22:00;;;;;;;41.22;17.27;;;;;;;;;;5054794;28;20242;-49
2021/11/07 12:24:30;;;;;;;35.97;16.33;;;;;;;;;;5035598;28;20725;-49
2021/11/07 12:27:15;;;;;;;38.92;16.30;;;;;;;;;;5031592;28;20187;-49
2021/11/07 12:29:43;;;;;;;37.88;15.60;;;;;;;;;;5035697;28;20187;-49
2021/11/07 12:32:11;;;;;;;39.45;14.55;;;;;;;;;;5036473;28;20175;-48
2021/11/07 12:35:08;;;;;;;39.00;16.40;;;;;;;;;;5035767;28;20191;-48
2021/11/07 12:40:38;;;;;;;35.13;13.82;;;;;;;;;;5017108;28;20187;-49
2021/11/07 12:43:05;;;;;;;34.95;13.35;;;;;;;;;;5016098;28;20173;-48
2021/11/07 12:45:36;;;;;;;32.20;12.85;;;;;;;;;;5016337;28;20575;-50
2021/11/07 12:48:06;;;;;;;31.67;13.15;;;;;;;;;;5034861;28;20207;-50
2021/11/07 12:50:52;;;;;;;30.58;12.00;;;;;;;;;;5035829;28;20231;-48
2021/11/07 12:53:19;;;;;;;31.60;12.25;;;;;;;;;;5035298;28;20172;-48
2021/11/07 12:55:45;;;;;;;27.98;11.13;;;;;;;;;;5034581;28;20204;-48
2021/11/07 12:58:13;;;;;;;30.05;11.70;;;;;;;;;;5034532;28;20440;-50
2021/11/07 13:00:39;;;;;;;24.10;10.57;;;;;;;;;;5035188;28;20172;-49
2021/11/07 13:03:09;;;;;;;27.73;11.98;;;;;;;;;;5035046;28;20196;-50
2021/11/07 13:05:38;;;;;;;22.95;10.57;;;;;;;;;;5035378;28;20552;-49
2021/11/07 13:08:07;;;;;;;24.63;10.60;;;;;;;;;;5035396;28;20198;-49
2021/11/07 13:10:48;;;;;;;28.75;10.90;;;;;;;;;;5025048;28;20175;-49
2021/11/07 13:16:18;;;;;;;20.45;9.85;;;;;;;;;;5034871;28;20215;-49
2021/11/07 13:31:48;;;;;;;20.35;8.68;;;;;;;;;;5034675;28;20513;-50
2021/11/07 13:34:18;;;;;;;19.58;8.85;;;;;;;;;;5034551;28;20183;-49
2021/11/07 13:36:45;;;;;;;21.52;8.77;;;;;;;;;;5032449;28;20245;-50
2021/11/07 13:39:13;;;;;;;14.30;7.47;;;;;;;;;;5026120;28;20183;-49
2021/11/07 13:41:41;;;;;;;17.95;8.25;;;;;;;;;;5034544;28;20267;-48
2021/11/07 13:44:17;;;;;;;17.75;8.02;;;;;;;;;;5034421;28;20267;-50
2021/11/07 13:47:00;;;;;;;21.67;8.02;;;;;;;;;;5024734;28;20187;-50
2021/11/07 13:49:27;;;;;;;15.90;6.95;;;;;;;;;;5034765;28;20262;-50
2021/11/07 13:51:58;;;;;;;18.08;6.97;;;;;;;;;;5034480;28;20176;-49
2021/11/07 13:54:25;;;;;;;18.40;7.80;;;;;;;;;;5034103;28;20179;-50
2021/11/07 13:56:51;;;;;;;18.33;7.50;;;;;;;;;;5034090;28;20278;-48
2021/11/07 13:59:47;;;;;;;16.67;6.75;;;;;;;;;;5034615;28;20599;-48
2021/11/07 14:02:15;;;;;;;12.75;6.20;;;;;;;;;;5034368;28;20188;-49
2021/11/07 14:04:42;;;;;;;13.48;6.45;;;;;;;;;;5033150;28;20178;-49
2021/11/07 14:07:14;;;;;;;17.77;6.78;;;;;;;;;;5033614;28;20184;-49
2021/11/07 14:10:00;;;;;;;14.88;6.07;;;;;;;;;;5033869;28;20238;-49
2021/11/07 14:12:31;;;;;;;16.02;5.90;;;;;;;;;;5035053;28;20435;-49
2021/11/07 14:15:13;;;;;;;13.20;6.25;;;;;;;;;;5033299;28;20180;-49
2021/11/07 14:17:41;;;;;;;12.90;5.55;;;;;;;;;;5034114;28;20550;-50
2021/11/07 14:20:07;;;;;;;14.00;6.40;;;;;;;;;;5022255;28;20218;-50
2021/11/07 14:22:35;;;;;;;12.23;5.72;;;;;;;;;;5031005;28;20168;-50
2021/11/07 14:25:11;;;;;;;14.20;5.97;;;;;;;;;;5033720;28;20175;-50
2021/11/07 14:27:48;;;;;;;10.85;5.45;;;;;;;;;;5034113;28;20472;-50
2021/11/07 14:30:25;;;;;;;14.43;5.22;;;;;;;;;;5034052;28;20418;-49
2021/11/07 14:35:53;;;;;;;10.00;4.93;;;;;;;;;;5037550;28;20211;-49
2021/11/07 14:38:30;;;;;;;10.68;5.30;;;;;;;;;;5033785;28;20490;-49
2021/11/07 14:41:09;;;;;;;11.38;4.78;;;;;;;;;;5034260;28;20176;-49
2021/11/07 14:43:50;;;;;;;9.90;4.95;;;;;;;;;;5033839;28;20591;-49
2021/11/07 14:49:39;;;;;;;11.43;4.47;;;;;;;;;;5031946;28;20195;-48
2021/11/07 15:00:06;;;;;;;10.68;4.78;;;;;;;;;;5033772;28;20175;-49
2021/11/07 15:02:56;;;;;;;8.68;3.88;;;;;;;;;;5029943;28;20183;-50
2021/11/07 15:05:34;;;;;;;8.77;4.22;;;;;;;;;;5033607;28;20176;-50
2021/11/07 15:13:40;;;;;;;6.78;4.00;;;;;;;;;;5014980;28;20479;-49
2021/11/07 15:21:17;;;;;;;7.07;3.65;;;;;;;;;;5034719;28;20180;-50
2021/11/07 15:23:44;;;;;;;11.65;4.07;;;;;;;;;;5034426;28;20175;-50
2021/11/07 15:26:18;;;;;;;11.57;4.00;;;;;;;;;;5041322;28;20183;-51
2021/11/07 15:28:52;;;;;;;12.60;4.50;;;;;;;;;;5041619;28;20181;-49
2021/11/07 15:31:18;;;;;;;8.85;3.72;;;;;;;;;;5048389;28;20276;-48
2021/11/07 15:33:45;;;;;;;9.55;3.72;;;;;;;;;;5036629;28;20179;-50
2021/11/07 15:36:12;;;;;;;9.82;3.78;;;;;;;;;;5037293;28;20191;-49
2021/11/07 15:38:39;;;;;;;9.85;4.28;;;;;;;;;;5036884;28;20282;-49
2021/11/07 15:41:06;;;;;;;6.82;3.08;;;;;;;;;;5037617;28;20167;-49
2021/11/07 15:43:33;;;;;;;8.70;4.18;;;;;;;;;;5036778;28;20182;-50
2021/11/07 15:48:28;;;;;;;7.25;3.70;;;;;;;;;;5036986;28;20233;-50
2021/11/07 15:51:22;;;;;;;6.57;3.28;;;;;;;;;;5035041;28;20587;-49
2021/11/07 15:56:27;;;;;;;5.65;2.95;;;;;;;;;;5037108;28;20216;-49
2021/11/07 16:07:37;;;;;;;6.68;3.08;;;;;;;;;;5036668;28;20207;-48
2021/11/07 16:09:41;;;;;;;7.38;3.38;;;;;;;;;;5025586;28;20184;-49
2021/11/07 16:17:03;;;;;;;5.22;2.75;;;;;;;;;;5036726;28;20637;-48
2021/11/07 16:19:32;;;;;;;5.53;2.75;;;;;;;;;;5036690;28;20172;-49
2021/11/07 16:21:58;;;;;;;6.60;3.08;;;;;;;;;;5035937;28;20168;-50
2021/11/07 16:24:26;;;;;;;6.43;2.85;;;;;;;;;;5034582;28;20230;-49
2021/11/07 16:26:55;;;;;;;5.03;2.95;;;;;;;;;;5036103;28;20263;-49
2021/11/07 16:29:29;;;;;;;4.53;2.63;;;;;;;;;;5036454;28;20179;-49
2021/11/07 16:32:00;;;;;;;3.83;2.45;;;;;;;;;;5036384;28;20179;-49
2021/11/07 16:34:29;;;;;;;5.07;2.85;;;;;;;;;;5034175;28;20207;-50
2021/11/07 16:36:56;;;;;;;5.43;2.53;;;;;;;;;;5036084;28;20200;-50
2021/11/07 16:39:27;;;;;;;4.85;2.70;;;;;;;;;;5036070;28;20172;-48
2021/11/07 16:41:57;;;;;;;11.32;2.92;;;;;;;;;;5034527;28;20645;-49
2021/11/07 16:44:25;;;;;;;5.20;2.70;;;;;;;;;;5035537;28;20520;-50
2021/11/07 16:46:58;;;;;;;3.70;2.40;;;;;;;;;;5035851;28;20238;-49
2021/11/07 16:49:27;;;;;;;4.82;2.33;;;;;;;;;;5035682;28;20234;-49
2021/11/07 16:52:04;;;;;;;4.93;2.85;;;;;;;;;;5035862;28;20179;-48
2021/11/07 16:54:35;;;;;;;5.93;2.33;;;;;;;;;;5035620;28;20206;-49
2021/11/07 16:57:01;;;;;;;5.00;2.30;;;;;;;;;;5034170;28;20207;-50
2021/11/07 17:02:24;;;;;;;4.90;2.50;;;;;;;;;;5035190;28;20547;-50
2021/11/07 17:07:17;;;;;;;4.00;2.20;;;;;;;;;;5035556;28;20200;-50
2021/11/07 17:09:46;;;;;;;5.03;2.13;;;;;;;;;;5031354;28;20720;-50
2021/11/07 17:12:21;;;;;;;3.58;2.13;;;;;;;;;;5035301;28;20180;-50
2021/11/07 17:14:52;;;;;;;5.07;2.42;;;;;;;;;;5033820;28;20440;-50
2021/11/07 17:17:21;;;;;;;3.55;2.05;;;;;;;;;;5031797;28;20215;-51
2021/11/07 17:19:53;;;;;;;3.38;2.40;;;;;;;;;;5033770;28;20535;-51
2021/11/07 17:22:44;;;;;;;5.03;2.30;;;;;;;;;;5021351;28;20180;-51
2021/11/07 17:25:14;;;;;;;4.00;2.05;;;;;;;;;;5030236;28;20168;-50
2021/11/07 17:27:45;;;;;;;4.30;1.90;;;;;;;;;;5034899;28;20266;-50
2021/11/07 17:30:19;;;;;;;4.25;2.17;;;;;;;;;;5025666;28;20310;-49
2021/11/07 17:32:51;;;;;;;4.28;1.85;;;;;;;;;;5020638;28;20566;-51
2021/11/07 17:49:13;;;;;;;2.30;1.95;;;;;;;;;;5034057;28;20593;-50
2021/11/07 17:56:50;;;;;;;3.20;1.75;;;;;;;;;;5033828;28;20591;-51
2021/11/07 17:59:18;;;;;;;2.83;1.75;;;;;;;;;;5034810;28;20440;-50
2021/11/07 18:01:47;;;;;;;3.17;2.15;;;;;;;;;;5034603;28;20184;-49